UNR Ag. Experiment Farm, Sparks, Nevada Weather observations

Data are for 10 minute period ending at time listed.
 Day   Time   Solar   Ave.   Ave.  Ave.  Vector  Max.   Baro.   Total    
  of    of     Rad.   Air    Rel.  Wind   Wind   Wind  Press.  Precip.   
Year   Day            Temp.  Hum.  Speed  Dir.   Gust                    
2015   (PST)  Kw/m2    F      %     mph   deg.    mph    mb.     in.     
-------------------------------------------------------------------------
 148   12:10   0.94   76.8    22    2.7   294     5.5   866.8    0.00 
 148   12:20   0.95   75.4    24    3.8   333     8.2   866.8    0.00 
 148   12:30   0.95   75.4    25    3.7   321     8.3   866.7    0.00 
 148   12:40   0.96   76.0    23    3.5     0     6.6   866.5    0.00 
 148   12:50   0.97   76.8    22    3.0   350     7.4   866.4    0.00 
 148   13:00   0.94   76.6    21    3.5   357     8.0   866.3    0.00 
 148   13:10   0.93   76.6    23    5.4   339     9.8   866.2    0.00 
 148   13:20   0.94   77.5    19    2.7   277     6.4   866.1    0.00 
 148   13:30   0.90   78.4    18    3.6   312     7.4   866.0    0.00 
 148   13:40   0.86   77.9    18    4.3    55     9.0   866.0    0.00 
 148   13:50   0.72   78.5    18    2.6    29     7.2   866.0    0.00 
 148   14:00   0.48   77.6    18    3.1   302     7.1   865.9    0.00 
 148   14:10   0.68   77.4    19    2.4   333     8.0   865.8    0.00 
 148   14:20   0.71   78.3    20    3.2    14     5.8   865.7    0.00 
 148   14:30   0.69   78.1    23    3.4   353     5.2   865.7    0.00 
 148   14:40   0.78   79.6    21    3.1    68     8.7   865.6    0.00 
 148   14:50   0.75   80.1    20    3.1    69     6.4   865.5    0.00 
 148   15:00   0.74   79.9    18    3.3    72     6.2   865.4    0.00 
 148   15:10   0.76   80.3    19    1.9    29     3.5   865.3    0.00 
 148   15:20   0.53   79.5    20    3.4    14     5.4   865.2    0.00 
 148   15:30   0.70   80.0    18    1.5    43     4.5   865.2    0.00 
 148   15:40   0.69   82.2    20    1.6    41     3.1   865.1    0.00 
 148   15:50   0.57   81.0    21    2.1    34     4.0   865.1    0.00 
 148   16:00   0.58   81.8    16    2.8   112     7.6   865.0    0.00 
 148   16:10   0.55   81.4    18    3.1    83     8.6   865.0    0.00 
 148   16:20   0.51   79.2    25    4.8     6     8.5   864.9    0.00 
 148   16:30   0.47   79.3    23    3.2     4     5.4   864.9    0.00 
 148   16:40   0.44   78.4    27    4.7   358     8.8   864.8    0.00 
 148   16:50   0.39   78.8    24    3.5   347     5.8   864.8    0.00 
 148   17:00   0.43   78.5    26    4.2     4     6.9   864.8    0.00 
 148   17:10   0.36   80.6    20    1.9    20     7.2   864.7    0.00 
 148   17:20   0.27   79.8    24    3.5    64     6.5   864.7    0.00 
 148   17:30   0.20   79.9    18    3.9   117     6.9   864.7    0.00 
 148   17:40   0.10   79.3    17    3.8   117     6.1   864.7    0.00 
 148   17:50   0.10   79.4    18    1.4   116     2.7   864.7    0.00 
 148   18:00   0.10   78.5    23    2.3   106     4.1   864.7    0.00 
 148   18:10   0.12   77.6    25    1.7   113     4.4   864.8    0.00 
 148   18:20   0.19   76.7    29    2.8   356     4.6   864.8    0.00 
 148   18:30   0.18   78.4    19    2.2   353     8.9   864.9    0.00 
 148   18:40   0.15   75.2    25    5.3   360     9.9   865.0    0.00 
 148   18:50   0.09   72.9    28    5.4     7     9.5   865.0    0.00 
 148   19:00   0.05   72.4    26    6.6     8    11.2   865.0    0.00 
 148   19:10   0.01   70.3    29    6.0   325     8.4   865.2    0.00 
 148   19:20   0.01   70.8    28    5.0   328     7.7   865.2    0.00 
 148   19:30   0.00   70.2    29    4.5   323     5.7   865.2    0.00 
 148   19:40   0.00   68.4    31    6.2   313     8.5   865.2    0.00 
 148   19:50   0.00   69.8    29    6.0   334     8.7   865.3    0.00 
 148   20:00   0.00   68.9    30    6.6   340    10.2   865.4    0.00 
 148   20:10   0.00   69.6    31    6.0   339     9.3   865.6    0.00 
 148   20:20   0.00   68.8    35    6.0   347    10.9   865.8    0.00 
 148   20:30   0.00   67.3    40    4.4   351     6.1   865.8    0.00 
 148   20:40   0.00   66.2    42    3.8    50     5.0   866.0    0.00 
 148   20:50   0.00   65.0    44    3.7    54     5.0   866.0    0.00 
 148   21:00   0.00   66.7    40    3.4    16     4.5   866.0    0.00 
 148   21:10   0.00   66.7    43    3.1   349     4.5   866.2    0.00 
 148   21:20   0.00   66.1    42    2.3    30     4.2   866.3    0.00 
 148   21:30   0.00   66.4    42    3.0   353     4.9   866.3    0.00 
 148   21:40   0.00   67.1    41    2.4   324     4.3   866.4    0.00 
 148   21:50   0.00   66.3    42    1.2    44     3.8   866.4    0.00 
 148   22:00   0.00   65.0    44    1.4   178     3.5   866.4    0.00 
 148   22:10   0.00   63.5    46    1.6   240     2.7   866.4    0.00 
 148   22:20   0.00   63.9    49    3.3    23     5.0   866.4    0.00 
 148   22:30   0.00   57.7    63    2.7    48     4.9   866.3    0.00 
 148   22:40   0.00   57.5    63    2.1   236     3.4   866.2    0.00 
 148   22:50   0.00   57.8    59    1.6   228     2.6   866.2    0.00 
 148   23:00   0.00   57.6    60    1.5   139     2.3   866.2    0.00 
 148   23:10   0.00   60.3    54    0.0     0     0.0   866.2    0.00 
 148   23:20   0.00   58.9    59    1.1   167     2.3   866.2    0.00 
 148   23:30   0.00   58.0    62    1.7   274     3.3   866.2    0.00 
 148   23:40   0.00   58.8    59    2.6   326     3.7   866.3    0.00 
 148   23:50   0.00   57.5    65    1.1    77     1.8   866.3    0.00 
 149    0:00   0.00   57.0    65    0.7   133     2.0   866.3    0.00 
 149    0:10   0.00   55.4    70    2.8   162     4.3   866.4    0.00 
 149    0:20   0.00   55.9    66    3.5   166     4.0   866.3    0.00 
 149    0:30   0.00   55.0    66    3.4   176     4.1   866.3    0.00 
 149    0:40   0.00   53.8    70    3.1   172     3.7   866.4    0.00 
 149    0:50   0.00   53.6    73    2.9   176     3.5   866.4    0.00 
 149    1:00   0.00   53.5    72    2.3   188     3.1   866.4    0.00 
 149    1:10   0.00   52.9    74    0.6   146     1.8   866.4    0.00 
 149    1:20   0.00   54.8    68    1.8   207     3.0   866.3    0.00 
 149    1:30   0.00   54.9    62    1.5   197     2.9   866.3    0.00 
 149    1:40   0.00   53.7    67    0.9   214     1.8   866.3    0.00 
 149    1:50   0.00   53.5    68    0.3   256     1.4   866.4    0.00 
 149    2:00   0.00   53.6    66    0.0   246     0.5   866.4    0.00 
 149    2:10   0.00   55.8    60    1.3   245     1.6   866.3    0.00 
 149    2:20   0.00   54.4    62    1.1   217     2.0   866.3    0.00 
 149    2:30   0.00   52.5    70    1.4   111     2.2   866.3    0.00 
 149    2:40   0.00   51.0    72    0.7   295     2.2   866.4    0.00 
 149    2:50   0.00   50.1    77    1.4    92     3.4   866.4    0.00 
 149    3:00   0.00   50.9    78    1.6   118     3.4   866.4    0.00 
 149    3:10   0.00   50.5    80    1.4   121     2.8   866.4    0.00 
 149    3:20   0.00   49.2    81    1.8   175     3.0   866.4    0.00 
 149    3:30   0.00   49.3    81    1.0   220     1.8   866.4    0.00 
 149    3:40   0.00   49.3    81    0.6   236     1.9   866.4    0.00 
 149    3:50   0.00   49.7    76    0.7   102     2.1   866.5    0.00 
 149    4:00   0.00   47.9    81    1.9    52     3.1   866.5    0.00 
 149    4:10   0.00   46.9    84    0.9   147     2.4   866.5    0.00 
 149    4:20   0.00   47.8    85    0.0   179     0.4   866.5    0.00 
 149    4:30   0.00   48.8    84    0.1   179     0.8   866.7    0.00 
 149    4:40   0.00   48.5    83    0.0   180     0.6   866.7    0.00 
 149    4:50   0.01   47.8    85    0.2   194     0.9   866.8    0.00 
 149    5:00   0.01   47.8    86    0.7   228     1.7   866.7    0.00 
 149    5:10   0.05   47.1    85    2.0   148     2.6   866.9    0.00 
 149    5:20   0.07   47.6    85    1.8   177     3.1   866.9    0.00 
 149    5:30   0.09   49.7    82    1.0   209     2.2   867.0    0.00 
 149    5:40   0.11   52.1    78    1.1   120     2.3   867.0    0.00 
 149    5:50   0.13   54.0    76    1.0   130     2.1   867.1    0.00 
 149    6:00   0.16   57.1    74    0.1   132     1.0   867.0    0.00 
 149    6:10   0.19   58.6    68    0.3   132     1.1   867.0    0.00 
 149    6:20   0.21   60.2    64    0.2   121     1.2   867.0    0.00 
 149    6:30   0.24   62.3    58    0.1   120     1.2   867.0    0.00 
 149    6:40   0.27   63.1    55    0.3   350     1.5   867.0    0.00 
 149    6:50   0.30   62.0    58    1.4    37     2.5   867.0    0.00 
 149    7:00   0.33   63.0    55    0.8    75     2.9   867.1    0.00 
 149    7:10   0.36   63.8    52    0.5    20     1.9   867.1    0.00 
 149    7:20   0.39   64.1    52    0.9     3     2.0   867.2    0.00 
 149    7:30   0.41   65.3    52    1.0    42     2.0   867.1    0.00 
 149    7:40   0.45   65.8    49    1.0   356     2.8   867.1    0.00 
 149    7:50   0.48   66.0    47    0.9     1     2.0   867.1    0.00 
 149    8:00   0.50   66.1    46    1.3   325     3.1   867.2    0.00 
 149    8:10   0.54   66.9    43    0.6   310     1.8   867.4    0.00 
 149    8:20   0.54   69.0    41    1.0    41     2.0   867.3    0.00 
 149    8:30   0.58   68.7    42    1.6   360     3.6   867.2    0.00 
 149    8:40   0.61   68.5    43    1.8   294     4.5   867.1    0.00 
 149    8:50   0.63   68.8    44    2.3   325     3.9   867.1    0.00 
 149    9:00   0.67   69.5    42    2.3     3     3.8   867.1    0.00 
 149    9:10   0.69   70.7    40    2.4   356     3.5   867.0    0.00 
 149    9:20   0.71   71.4    37    1.8   341     3.7   866.9    0.00 
 149    9:30   0.73   72.5    36    1.7   349     2.9   866.9    0.00 
 149    9:40   0.76   72.8    36    2.2   305     3.4   866.8    0.00 
 149    9:50   0.77   73.6    34    2.3   310     3.8   866.8    0.00 
 149   10:00   0.80   74.1    34    2.5   294     4.8   866.8    0.00 
 149   10:10   0.81   74.7    33    2.7   312     5.0   866.6    0.00 
 149   10:20   0.83   75.7    31    2.1   307     5.0   866.5    0.00 
 149   10:30   0.86   76.5    30    2.1   303     3.8   866.4    0.00 
 149   10:40   0.87   77.6    30    2.3   319     5.3   866.2    0.00 
 149   10:50   0.90   78.0    26    1.4   318     3.9   866.1    0.00 
 149   11:00   0.87   78.4    27    2.9   323     6.6   866.0    0.00 
 149   11:10   0.95   80.0    26    3.6    91     8.0   865.9    0.00 
 149   11:20   0.94   81.3    19    6.5   154    15.1   865.8    0.00 
 149   11:30   0.93   81.2    18    6.5   238    14.5   865.8    0.00 
 149   11:40   0.93   79.6    22    4.3   307     8.1   865.7    0.00 
 149   11:50   0.94   81.6    20    5.9   136    14.4   865.6    0.00 
 149   12:00   0.94   81.5    20    3.3    73     8.5   865.4    0.00 

Return to Sparks, Nevada, UNR Ag Experiment Farm graphs page.


Western Regional Climate Center,wrcc@dri.edu